Time;durP1;ratioP1;P1;durP2;ratioP2;P2;SDS_P1;SDS_P2;PMS_P1;PMS_P2;Temp;Humidity;BMP_temperature;BMP_pressure;BME280_temperature;BME280_humidity;BME280_pressure;Samples;Min_cycle;Max_cycle;Signal;HPM_P1;HPM_P2
2023/09/11 00:02:08;;;;;;;14.15;7.57;;;20.20;99.90;;;;;;5058039;28;20412;-89
2023/09/11 00:04:34;;;;;;;11.65;6.38;;;20.20;99.90;;;;;;5039138;28;20095;-89
2023/09/11 00:07:01;;;;;;;12.07;7.13;;;20.20;99.90;;;;;;5045364;28;20267;-89
2023/09/11 00:09:27;;;;;;;11.95;6.88;;;20.20;99.90;;;;;;5062389;28;20036;-89
2023/09/11 00:11:53;;;;;;;11.43;6.55;;;20.10;99.90;;;;;;5060117;28;20120;-88
2023/09/11 00:14:19;;;;;;;13.55;7.05;;;20.10;99.90;;;;;;5041699;28;20568;-88
2023/09/11 00:16:44;;;;;;;12.43;6.57;;;20.10;99.90;;;;;;5057827;28;20091;-89
2023/09/11 00:19:12;;;;;;;12.13;7.32;;;20.10;99.90;;;;;;5039738;28;20061;-89
2023/09/11 00:21:38;;;;;;;13.27;7.10;;;20.10;99.90;;;;;;5044831;28;20283;-88
2023/09/11 00:24:04;;;;;;;12.77;7.22;;;20.00;99.90;;;;;;5062740;28;20068;-88
2023/09/11 00:26:30;;;;;;;14.15;7.30;;;20.00;99.90;;;;;;5066407;28;20040;-89
2023/09/11 00:28:56;;;;;;;12.65;6.88;;;20.00;99.90;;;;;;5057520;28;20047;-88
2023/09/11 00:31:21;;;;;;;11.63;7.07;;;20.00;99.90;;;;;;5053666;28;20049;-88
2023/09/11 00:33:47;;;;;;;12.75;7.30;;;20.00;99.90;;;;;;5073111;28;20052;-88
2023/09/11 00:36:13;;;;;;;12.65;6.65;;;20.00;99.90;;;;;;5086836;28;20032;-88
2023/09/11 00:38:39;;;;;;;12.48;7.10;;;19.90;99.90;;;;;;5071575;28;20497;-88
2023/09/11 00:41:04;;;;;;;11.05;6.82;;;20.00;99.90;;;;;;5061315;28;20048;-88
2023/09/11 00:43:30;;;;;;;12.82;6.97;;;19.90;99.90;;;;;;5064348;28;20132;-88
2023/09/11 00:45:57;;;;;;;12.57;7.05;;;19.90;99.90;;;;;;5055562;28;20204;-89
2023/09/11 00:48:24;;;;;;;13.40;7.05;;;19.90;99.90;;;;;;5079158;28;20119;-89
2023/09/11 00:50:50;;;;;;;11.77;6.82;;;19.90;99.90;;;;;;5049903;28;20036;-89
2023/09/11 00:53:18;;;;;;;11.13;6.53;;;19.80;99.90;;;;;;5071748;28;20047;-89
2023/09/11 00:55:45;;;;;;;15.45;6.85;;;19.80;99.90;;;;;;5069406;28;20497;-88
2023/09/11 00:58:15;;;;;;;11.27;6.38;;;19.80;99.90;;;;;;5052312;28;20213;-89
2023/09/11 01:00:41;;;;;;;11.52;6.80;;;19.80;99.90;;;;;;5087365;28;20028;-89
2023/09/11 01:03:07;;;;;;;11.63;6.35;;;19.70;99.90;;;;;;5070160;28;20279;-88
2023/09/11 01:05:35;;;;;;;12.27;7.38;;;19.70;99.90;;;;;;5065440;28;20243;-88
2023/09/11 01:08:01;;;;;;;12.00;6.78;;;19.70;99.90;;;;;;5051459;28;20504;-88
2023/09/11 01:10:27;;;;;;;14.05;7.07;;;19.70;99.90;;;;;;5050461;28;20043;-88
2023/09/11 01:12:53;;;;;;;12.90;6.93;;;19.70;99.90;;;;;;5066262;28;20051;-88
2023/09/11 01:15:19;;;;;;;11.85;6.85;;;19.70;99.90;;;;;;5064505;28;20045;-88
2023/09/11 01:18:00;;;;;;;11.27;6.40;;;19.70;99.90;;;;;;5066879;28;20047;-88
2023/09/11 01:20:44;;;;;;;12.13;7.15;;;19.70;99.90;;;;;;5065281;28;20040;-88
2023/09/11 01:23:09;;;;;;;14.73;7.18;;;19.70;99.90;;;;;;5069375;28;20565;-88
2023/09/11 01:25:56;;;;;;;12.05;6.97;;;19.60;99.90;;;;;;5081606;28;20119;-89
2023/09/11 01:28:47;;;;;;;13.23;6.22;;;19.60;99.90;;;;;;5062830;28;20069;-88
2023/09/11 01:31:13;;;;;;;11.15;6.00;;;19.60;99.90;;;;;;5072690;28;20483;-88
2023/09/11 01:33:38;;;;;;;10.57;6.10;;;19.60;99.90;;;;;;5048900;28;20155;-88
2023/09/11 01:36:04;;;;;;;11.88;6.25;;;19.60;99.90;;;;;;5083373;28;20115;-88
2023/09/11 01:38:30;;;;;;;10.10;6.22;;;19.60;99.90;;;;;;5057303;28;20442;-89
2023/09/11 01:40:59;;;;;;;11.20;6.45;;;19.60;99.90;;;;;;5082515;28;20468;-89
2023/09/11 01:43:29;;;;;;;13.25;6.38;;;19.60;99.90;;;;;;5042318;28;20041;-88
2023/09/11 01:45:54;;;;;;;12.75;6.50;;;19.50;99.90;;;;;;5067778;28;20040;-89
2023/09/11 01:48:22;;;;;;;11.85;6.47;;;19.50;99.90;;;;;;5064739;28;20047;-88
2023/09/11 01:50:48;;;;;;;10.25;5.90;;;19.50;99.90;;;;;;5070707;28;20046;-88
2023/09/11 01:53:14;;;;;;;12.60;5.93;;;19.40;99.90;;;;;;5062622;28;20048;-89
2023/09/11 01:55:41;;;;;;;11.52;6.03;;;19.50;99.90;;;;;;5081062;28;20055;-89
2023/09/11 01:58:07;;;;;;;11.30;6.10;;;19.40;99.90;;;;;;5072522;28;20107;-89
2023/09/11 02:00:33;;;;;;;11.07;6.38;;;19.40;99.90;;;;;;5047693;28;20408;-89
2023/09/11 02:02:59;;;;;;;11.20;5.82;;;19.40;99.90;;;;;;5065022;28;20049;-88
2023/09/11 02:05:25;;;;;;;10.90;6.30;;;19.40;99.90;;;;;;5068167;28;20146;-88
2023/09/11 02:07:50;;;;;;;11.45;6.55;;;19.40;99.90;;;;;;5063389;28;20044;-89
2023/09/11 02:10:17;;;;;;;11.15;6.22;;;19.40;99.90;;;;;;5064212;28;20473;-88
2023/09/11 02:12:43;;;;;;;11.57;6.40;;;19.40;99.90;;;;;;5074803;28;20037;-88
2023/09/11 02:15:09;;;;;;;10.60;5.35;;;19.40;99.90;;;;;;5064445;28;20378;-88
2023/09/11 02:17:35;;;;;;;10.75;5.10;;;19.40;99.90;;;;;;5075248;28;20042;-88
2023/09/11 02:20:00;;;;;;;11.75;6.50;;;19.40;99.90;;;;;;5035686;28;20040;-88
2023/09/11 02:22:26;;;;;;;14.30;6.20;;;19.40;99.90;;;;;;5069045;28;20062;-89
2023/09/11 02:24:52;;;;;;;11.00;5.28;;;19.50;99.90;;;;;;5065122;28;20036;-89
2023/09/11 02:27:17;;;;;;;7.88;3.30;;;19.50;99.90;;;;;;5080862;28;20127;-88
2023/09/11 02:29:43;;;;;;;8.68;3.47;;;19.50;99.90;;;;;;5066407;28;20048;-88
2023/09/11 02:32:09;;;;;;;8.90;3.40;;;19.50;99.90;;;;;;5043207;28;20616;-88
2023/09/11 02:34:34;;;;;;;6.63;3.10;;;19.50;99.90;;;;;;5049180;28;20127;-89
2023/09/11 02:37:00;;;;;;;7.20;3.28;;;19.50;99.90;;;;;;5082493;28;20116;-88
2023/09/11 02:39:26;;;;;;;8.57;3.30;;;19.50;99.90;;;;;;5071832;28;20558;-88
2023/09/11 02:41:52;;;;;;;6.97;3.10;;;19.50;99.90;;;;;;5065662;28;20568;-88
2023/09/11 02:44:17;;;;;;;7.40;3.38;;;19.50;99.90;;;;;;5064147;28;20098;-89
2023/09/11 02:46:43;;;;;;;7.18;3.20;;;19.50;99.90;;;;;;5061353;28;20508;-89
2023/09/11 02:49:09;;;;;;;7.28;3.10;;;19.50;99.90;;;;;;5081314;28;20040;-89
2023/09/11 02:51:34;;;;;;;8.75;3.15;;;19.50;99.90;;;;;;5062624;28;20051;-88
2023/09/11 02:54:00;;;;;;;8.63;3.67;;;19.50;99.90;;;;;;5078955;28;20557;-89
2023/09/11 02:56:26;;;;;;;10.73;4.60;;;19.50;99.90;;;;;;5086547;28;20104;-88
2023/09/11 02:58:52;;;;;;;9.23;4.32;;;19.50;99.90;;;;;;5064756;28;20039;-88
2023/09/11 03:01:18;;;;;;;12.77;4.85;;;19.50;99.90;;;;;;5060936;28;20513;-88
2023/09/11 03:03:45;;;;;;;10.13;4.57;;;19.50;99.90;;;;;;5062306;28;20059;-88
2023/09/11 03:06:10;;;;;;;12.43;4.88;;;19.50;99.90;;;;;;5065832;28;20208;-88
2023/09/11 03:08:36;;;;;;;10.57;4.32;;;19.50;99.90;;;;;;5060528;28;20047;-88
2023/09/11 03:11:09;;;;;;;11.27;4.65;;;19.50;99.90;;;;;;5040181;28;20119;-88
2023/09/11 03:13:36;;;;;;;9.45;4.47;;;19.50;99.90;;;;;;5068776;28;20204;-88
2023/09/11 03:16:15;;;;;;;10.10;4.68;;;19.50;99.90;;;;;;5090208;28;20149;-88
2023/09/11 03:18:41;;;;;;;10.38;4.63;;;19.50;99.90;;;;;;5066662;28;20044;-88
2023/09/11 03:21:07;;;;;;;11.18;4.30;;;19.40;99.90;;;;;;5084508;28;20043;-88
2023/09/11 03:23:33;;;;;;;8.80;4.28;;;19.40;99.90;;;;;;5067779;28;20051;-88
2023/09/11 03:25:59;;;;;;;8.68;4.30;;;19.40;99.90;;;;;;5086444;28;20080;-89
2023/09/11 03:28:29;;;;;;;9.82;4.22;;;19.40;99.90;;;;;;5087421;28;20108;-88
2023/09/11 03:30:56;;;;;;;9.70;4.72;;;19.40;99.90;;;;;;5065675;28;20052;-88
2023/09/11 03:33:22;;;;;;;9.45;4.63;;;19.40;99.90;;;;;;5065701;28;20081;-89
2023/09/11 03:35:48;;;;;;;10.18;4.50;;;19.40;99.90;;;;;;5053749;28;20131;-88
2023/09/11 03:38:14;;;;;;;10.05;4.38;;;19.40;99.90;;;;;;5068206;28;20044;-88
2023/09/11 03:40:43;;;;;;;11.63;4.57;;;19.40;99.90;;;;;;5065376;28;20393;-88
2023/09/11 03:43:09;;;;;;;9.50;4.28;;;19.40;99.90;;;;;;5066697;28;20048;-88
2023/09/11 03:45:35;;;;;;;10.00;4.53;;;19.30;99.90;;;;;;5073189;28;20050;-89
2023/09/11 03:48:01;;;;;;;14.27;6.50;;;19.30;99.90;;;;;;5073691;28;20054;-88
2023/09/11 03:50:26;;;;;;;11.82;5.50;;;19.30;99.90;;;;;;5081737;28;20052;-88
2023/09/11 03:52:52;;;;;;;10.23;4.38;;;19.30;99.90;;;;;;5068715;28;20052;-88
2023/09/11 03:55:18;;;;;;;8.60;3.22;;;19.30;99.90;;;;;;5061724;28;20292;-89
2023/09/11 03:57:43;;;;;;;6.97;3.13;;;19.30;99.90;;;;;;5033897;28;20102;-89
2023/09/11 04:00:10;;;;;;;8.02;3.17;;;19.30;99.90;;;;;;5066016;28;20044;-89
2023/09/11 04:02:37;;;;;;;8.15;3.05;;;19.30;99.90;;;;;;5076464;28;20055;-89
2023/09/11 04:05:03;;;;;;;9.30;3.50;;;19.20;99.90;;;;;;5049889;28;20037;-88
2023/09/11 04:07:29;;;;;;;7.55;3.03;;;19.20;99.90;;;;;;5073151;28;20119;-88
2023/09/11 04:09:54;;;;;;;8.55;3.25;;;19.10;99.90;;;;;;5055509;28;20044;-88
2023/09/11 04:12:20;;;;;;;8.10;3.20;;;19.20;99.90;;;;;;5058123;28;20048;-88
2023/09/11 04:14:46;;;;;;;7.25;3.00;;;19.10;99.90;;;;;;5078227;28;20035;-88
2023/09/11 04:17:12;;;;;;;7.10;2.90;;;19.10;99.90;;;;;;5087514;28;20048;-88
2023/09/11 04:19:38;;;;;;;7.20;3.00;;;19.10;99.90;;;;;;5083252;28;20039;-89
2023/09/11 04:22:05;;;;;;;9.38;3.17;;;19.10;99.90;;;;;;5066265;28;20047;-88
2023/09/11 04:24:31;;;;;;;8.73;3.13;;;19.10;99.90;;;;;;5068416;28;20050;-88
2023/09/11 04:26:56;;;;;;;7.57;2.92;;;19.10;99.90;;;;;;5066852;28;20486;-88
2023/09/11 04:29:22;;;;;;;7.65;2.90;;;19.10;99.90;;;;;;5079773;28;20056;-88
2023/09/11 04:31:48;;;;;;;7.97;2.85;;;19.10;99.90;;;;;;5068920;28;20044;-88
2023/09/11 04:34:14;;;;;;;7.05;2.88;;;19.10;99.90;;;;;;5065004;28;20041;-88
2023/09/11 04:36:39;;;;;;;7.35;2.78;;;19.10;99.90;;;;;;5056152;28;20094;-89
2023/09/11 04:39:05;;;;;;;6.65;2.78;;;19.10;99.90;;;;;;5061799;28;20400;-88
2023/09/11 04:41:31;;;;;;;7.03;2.90;;;19.10;99.90;;;;;;5086485;28;20047;-88
2023/09/11 04:43:57;;;;;;;6.38;2.75;;;19.10;99.90;;;;;;5045298;28;20040;-88
2023/09/11 04:46:23;;;;;;;6.10;2.60;;;19.00;99.90;;;;;;5066432;28;20044;-89
2023/09/11 04:48:49;;;;;;;7.80;3.33;;;19.00;99.90;;;;;;5064136;28;20540;-88
2023/09/11 04:51:14;;;;;;;7.30;3.00;;;19.00;99.90;;;;;;5057214;28;20120;-88
2023/09/11 04:53:40;;;;;;;7.78;2.90;;;19.00;99.90;;;;;;5065518;28;20481;-89
2023/09/11 04:56:06;;;;;;;7.05;3.10;;;19.00;99.90;;;;;;5056876;28;20040;-90
2023/09/11 04:58:32;;;;;;;6.85;2.80;;;19.00;99.90;;;;;;5044731;28;20066;-89
2023/09/11 05:00:57;;;;;;;7.50;2.95;;;19.10;99.90;;;;;;5049269;28;20044;-88
2023/09/11 05:03:23;;;;;;;8.07;3.30;;;19.00;99.90;;;;;;5027594;28;20047;-89
2023/09/11 05:05:49;;;;;;;7.20;2.97;;;19.00;99.90;;;;;;5085515;28;20085;-88
2023/09/11 05:08:15;;;;;;;7.10;3.03;;;19.00;99.90;;;;;;5069663;28;20409;-88
2023/09/11 05:10:44;;;;;;;8.38;3.10;;;19.00;99.90;;;;;;5065730;28;20534;-89
2023/09/11 05:13:15;;;;;;;6.75;2.75;;;19.00;99.90;;;;;;5068985;28;20087;-89
2023/09/11 05:15:40;;;;;;;7.10;2.92;;;19.10;99.90;;;;;;5067146;28;20105;-88
2023/09/11 05:18:06;;;;;;;7.78;3.10;;;19.10;99.90;;;;;;5033769;28;20044;-89
2023/09/11 05:20:32;;;;;;;6.93;2.95;;;19.10;99.90;;;;;;5073191;28;20291;-89
2023/09/11 05:22:58;;;;;;;9.63;3.10;;;19.10;99.90;;;;;;5058569;28;20481;-90
2023/09/11 05:25:23;;;;;;;7.43;2.70;;;19.10;99.90;;;;;;5056857;28;20326;-89
2023/09/11 05:27:50;;;;;;;7.50;3.08;;;19.10;99.90;;;;;;5068733;28;20028;-88
2023/09/11 05:30:15;;;;;;;7.60;2.95;;;19.10;99.90;;;;;;5078184;28;20113;-87
2023/09/11 05:32:41;;;;;;;7.07;3.00;;;19.10;99.90;;;;;;5082623;28;20056;-88
2023/09/11 05:35:08;;;;;;;6.28;2.60;;;19.20;99.90;;;;;;5049965;28;20063;-88
2023/09/11 05:37:33;;;;;;;7.35;2.95;;;19.20;99.90;;;;;;5069673;28;20079;-88
2023/09/11 05:40:00;;;;;;;7.38;2.90;;;19.20;99.90;;;;;;5072864;28;20086;-88
2023/09/11 05:42:26;;;;;;;7.72;3.03;;;19.30;99.90;;;;;;5067590;28;20052;-88
2023/09/11 05:44:52;;;;;;;7.60;2.85;;;19.30;99.90;;;;;;5049136;28;20067;-88
2023/09/11 05:47:18;;;;;;;7.15;3.22;;;19.30;99.90;;;;;;5072318;28;20079;-87
2023/09/11 05:49:44;;;;;;;7.63;3.00;;;19.40;99.90;;;;;;5082359;28;20099;-88
2023/09/11 05:52:10;;;;;;;7.32;2.95;;;19.40;99.90;;;;;;5064333;28;20500;-88
2023/09/11 05:54:36;;;;;;;7.38;2.90;;;19.40;99.90;;;;;;5052346;28;20393;-88
2023/09/11 05:57:02;;;;;;;7.65;3.00;;;19.50;99.90;;;;;;5069603;28;20480;-88
2023/09/11 05:59:28;;;;;;;7.72;3.00;;;19.50;99.90;;;;;;5047336;28;20043;-88
2023/09/11 06:01:54;;;;;;;8.82;2.90;;;19.60;99.90;;;;;;5061393;28;20058;-87
2023/09/11 06:04:23;;;;;;;7.60;2.97;;;19.60;99.90;;;;;;5071998;28;20492;-88
2023/09/11 06:06:49;;;;;;;8.15;2.90;;;19.70;99.90;;;;;;5069068;28;20040;-89
2023/09/11 06:09:14;;;;;;;6.82;2.90;;;19.70;99.90;;;;;;5056083;28;20036;-86
2023/09/11 06:11:40;;;;;;;7.43;2.90;;;19.80;99.90;;;;;;5025865;28;20075;-83
2023/09/11 06:14:09;;;;;;;7.72;3.10;;;19.90;99.90;;;;;;5060239;28;20485;-85
2023/09/11 06:16:35;;;;;;;8.40;4.30;;;19.90;99.90;;;;;;5058721;28;20523;-86
2023/09/11 06:19:01;;;;;;;6.32;2.30;;;20.10;99.90;;;;;;5082196;28;20044;-87
2023/09/11 06:21:27;;;;;;;6.78;2.22;;;20.10;99.90;;;;;;5057216;28;20185;-87
2023/09/11 06:23:53;;;;;;;4.85;2.15;;;20.20;99.90;;;;;;5040722;28;20044;-86
2023/09/11 06:26:18;;;;;;;6.43;2.13;;;20.30;99.90;;;;;;5065303;28;20085;-88
2023/09/11 06:28:44;;;;;;;6.00;2.40;;;20.30;99.90;;;;;;5053603;28;20093;-86
2023/09/11 06:31:10;;;;;;;6.38;2.30;;;20.30;99.90;;;;;;5069490;28;20128;-88
2023/09/11 06:33:36;;;;;;;7.47;2.30;;;20.40;99.90;;;;;;5058452;28;21780;-88
2023/09/11 06:36:03;;;;;;;7.45;2.40;;;20.40;99.90;;;;;;5061957;28;20071;-87
2023/09/11 06:38:29;;;;;;;7.15;2.55;;;20.50;99.90;;;;;;5062859;28;20529;-86
2023/09/11 06:40:55;;;;;;;7.30;2.70;;;20.50;99.90;;;;;;5056587;28;20040;-88
2023/09/11 06:43:20;;;;;;;6.10;2.10;;;20.60;99.90;;;;;;5071419;28;20048;-88
2023/09/11 06:45:51;;;;;;;5.20;2.00;;;20.60;99.90;;;;;;5058846;28;20060;-87
2023/09/11 06:48:17;;;;;;;5.13;2.05;;;20.60;99.90;;;;;;5066254;28;20070;-87
2023/09/11 06:50:42;;;;;;;6.28;2.10;;;20.60;99.90;;;;;;5078021;28;20521;-88
2023/09/11 06:53:10;;;;;;;6.78;1.92;;;20.70;99.90;;;;;;5062982;28;20147;-86
2023/09/11 06:55:36;;;;;;;5.93;2.33;;;20.70;99.90;;;;;;5064800;28;20044;-87
2023/09/11 06:58:02;;;;;;;5.88;2.22;;;20.80;99.90;;;;;;5067427;28;20052;-88
2023/09/11 07:00:28;;;;;;;5.85;2.10;;;20.90;99.90;;;;;;5057600;28;20056;-88
2023/09/11 07:02:56;;;;;;;6.05;2.08;;;21.00;99.90;;;;;;5059986;28;20567;-87
2023/09/11 07:05:22;;;;;;;6.35;2.13;;;21.10;99.90;;;;;;5060793;28;20071;-87
2023/09/11 07:07:48;;;;;;;6.50;2.47;;;21.20;99.90;;;;;;5042642;28;20447;-86
2023/09/11 07:10:15;;;;;;;4.55;2.10;;;21.30;99.90;;;;;;5063066;28;20048;-87
2023/09/11 07:12:49;;;;;;;6.32;2.47;;;21.30;99.90;;;;;;5059224;28;20036;-87
2023/09/11 07:15:16;;;;;;;6.22;2.17;;;21.40;99.90;;;;;;5061387;28;20065;-87
2023/09/11 07:17:43;;;;;;;6.22;2.35;;;21.50;99.90;;;;;;5059321;28;20040;-87
2023/09/11 07:20:09;;;;;;;6.13;2.35;;;21.70;99.90;;;;;;5063142;28;20044;-87
2023/09/11 07:22:35;;;;;;;7.32;2.38;;;21.60;99.90;;;;;;5035705;28;20059;-87
2023/09/11 07:25:02;;;;;;;6.45;2.40;;;21.80;99.90;;;;;;5055753;28;20039;-87
2023/09/11 07:27:33;;;;;;;6.13;2.38;;;21.80;99.90;;;;;;5059505;28;20052;-88
2023/09/11 07:30:03;;;;;;;6.38;2.33;;;22.00;99.90;;;;;;5051702;28;20289;-88
2023/09/11 07:32:30;;;;;;;6.43;2.47;;;22.10;99.90;;;;;;5054595;28;20055;-87
2023/09/11 07:34:58;;;;;;;6.45;2.30;;;22.20;99.90;;;;;;5051682;28;20044;-87
2023/09/11 07:37:24;;;;;;;4.80;1.60;;;22.30;99.90;;;;;;5041079;28;20127;-87
2023/09/11 07:39:50;;;;;;;3.85;1.60;;;22.40;99.90;;;;;;5060122;28;20132;-87
2023/09/11 07:42:16;;;;;;;4.88;1.70;;;22.40;99.90;;;;;;5050816;28;20041;-88
2023/09/11 07:44:45;;;;;;;4.45;1.70;;;22.50;99.90;;;;;;5033927;28;20113;-87
2023/09/11 07:47:12;;;;;;;3.80;1.60;;;22.60;99.90;;;;;;5055402;28;20044;-86
2023/09/11 07:49:38;;;;;;;4.18;1.80;;;22.70;99.90;;;;;;5054203;28;20044;-87
2023/09/11 07:52:04;;;;;;;5.00;1.73;;;22.80;99.90;;;;;;5060315;28;20037;-86
2023/09/11 07:54:30;;;;;;;3.75;1.60;;;22.90;99.90;;;;;;5056018;28;20139;-86
2023/09/11 07:56:55;;;;;;;6.03;1.73;;;23.00;99.90;;;;;;5062958;28;20421;-86
2023/09/11 07:59:21;;;;;;;4.80;1.67;;;23.10;99.90;;;;;;5061809;28;20041;-87
2023/09/11 08:01:47;;;;;;;4.03;1.70;;;23.20;99.90;;;;;;5061925;28;20655;-87
2023/09/11 08:04:13;;;;;;;5.00;1.80;;;23.30;99.90;;;;;;5057527;28;20071;-86
2023/09/11 08:06:38;;;;;;;4.25;1.50;;;23.40;99.90;;;;;;5062118;28;20041;-87
2023/09/11 08:09:04;;;;;;;3.38;1.40;;;23.50;99.90;;;;;;5062625;28;20040;-87
2023/09/11 08:11:31;;;;;;;3.78;1.50;;;23.50;99.90;;;;;;5044628;28;20035;-87
2023/09/11 08:13:57;;;;;;;6.68;2.70;;;23.70;99.90;;;;;;5064388;28;20033;-86
2023/09/11 08:16:23;;;;;;;7.43;2.50;;;23.70;99.90;;;;;;5054206;28;20134;-86
2023/09/11 08:18:49;;;;;;;7.32;2.58;;;23.70;99.90;;;;;;5065581;28;20098;-86
2023/09/11 08:21:15;;;;;;;6.93;2.55;;;23.70;99.90;;;;;;5063347;28;20048;-88
2023/09/11 08:23:44;;;;;;;7.65;2.70;;;23.80;99.90;;;;;;5065646;28;20036;-87
2023/09/11 08:26:10;;;;;;;7.90;2.63;;;23.90;99.90;;;;;;5061475;28;20052;-88
2023/09/11 08:28:37;;;;;;;6.57;2.67;;;23.90;99.90;;;;;;5052515;28;20048;-87
2023/09/11 08:31:03;;;;;;;6.63;2.53;;;24.10;99.90;;;;;;5062620;28;20124;-87
2023/09/11 08:33:29;;;;;;;6.90;2.58;;;24.20;99.90;;;;;;5061974;28;20120;-87
2023/09/11 08:35:55;;;;;;;7.65;2.83;;;24.40;99.90;;;;;;5047269;28;20053;-85
2023/09/11 08:38:21;;;;;;;6.75;2.70;;;24.60;99.90;;;;;;5044996;28;20072;-87
2023/09/11 08:40:47;;;;;;;7.68;3.00;;;24.50;99.90;;;;;;5061815;28;20438;-88
2023/09/11 08:43:13;;;;;;;7.65;3.00;;;24.80;99.90;;;;;;5059778;28;20055;-89
2023/09/11 08:45:39;;;;;;;8.10;3.13;;;24.90;99.90;;;;;;5063880;28;20051;-87
2023/09/11 08:48:11;;;;;;;7.97;2.83;;;24.90;99.90;;;;;;5057916;28;20040;-88
2023/09/11 08:50:53;;;;;;;6.90;2.70;;;25.00;99.90;;;;;;5059448;28;20540;-88
2023/09/11 08:53:21;;;;;;;9.18;3.17;;;25.30;99.90;;;;;;5054460;28;20086;-88
2023/09/11 08:55:47;;;;;;;9.15;3.10;;;25.20;99.90;;;;;;5037936;28;20041;-88
2023/09/11 08:58:15;;;;;;;9.65;3.08;;;25.40;99.90;;;;;;5055521;28;20049;-88
2023/09/11 09:00:42;;;;;;;6.57;2.60;;;25.40;99.90;;;;;;5061571;28;20048;-88
2023/09/11 09:03:08;;;;;;;8.52;2.90;;;25.50;99.90;;;;;;5064926;28;20097;-87
2023/09/11 09:05:35;;;;;;;7.38;2.70;;;25.60;99.90;;;;;;5063388;28;20036;-88
2023/09/11 09:08:04;;;;;;;8.30;2.72;;;25.80;99.90;;;;;;5056019;28;20147;-89
2023/09/11 09:10:29;;;;;;;6.60;2.53;;;25.80;99.90;;;;;;5058975;28;20056;-88
2023/09/11 09:12:56;;;;;;;9.65;3.35;;;25.90;99.90;;;;;;5042439;28;20041;-90
2023/09/11 09:15:24;;;;;;;8.20;3.50;;;26.00;99.90;;;;;;5051711;28;20045;-88
2023/09/11 09:17:50;;;;;;;9.50;4.03;;;26.00;99.90;;;;;;5057508;28;20048;-88
2023/09/11 09:20:17;;;;;;;8.60;3.92;;;26.10;99.90;;;;;;5060797;28;20044;-87
2023/09/11 09:23:00;;;;;;;9.40;3.55;;;26.20;99.90;;;;;;5075078;28;20642;-87
2023/09/11 09:25:26;;;;;;;10.10;3.90;;;26.30;99.90;;;;;;5055508;28;20032;-87
2023/09/11 09:27:53;;;;;;;10.82;3.50;;;26.30;99.90;;;;;;5061196;28;20110;-87
2023/09/11 09:30:21;;;;;;;9.27;3.88;;;26.40;99.90;;;;;;5023044;28;20052;-87
2023/09/11 09:32:51;;;;;;;7.13;3.00;;;26.40;99.90;;;;;;5041904;28;20629;-87
2023/09/11 09:35:20;;;;;;;8.10;3.30;;;26.40;99.90;;;;;;5063304;28;20071;-88
2023/09/11 09:37:57;;;;;;;8.95;3.60;;;26.40;99.90;;;;;;5053660;28;20199;-86
2023/09/11 09:40:34;;;;;;;10.65;5.85;;;26.60;99.90;;;;;;5068796;28;20219;-86
2023/09/11 09:43:01;;;;;;;9.00;3.33;;;26.50;99.90;;;;;;5057387;28;20084;-86
2023/09/11 09:45:35;;;;;;;8.05;3.00;;;26.70;99.90;;;;;;5059236;28;20123;-86
2023/09/11 09:48:19;;;;;;;7.53;3.10;;;26.70;99.90;;;;;;5055335;28;20076;-86
2023/09/11 09:50:49;;;;;;;9.23;3.70;;;26.80;99.90;;;;;;5059881;28;20032;-86
2023/09/11 09:53:31;;;;;;;7.72;3.03;;;26.80;99.90;;;;;;5059341;28;20052;-88
2023/09/11 09:56:01;;;;;;;10.07;4.53;;;26.90;99.90;;;;;;5048806;28;20052;-87
2023/09/11 09:58:30;;;;;;;10.50;4.35;;;26.90;99.90;;;;;;5060459;28;20068;-88
2023/09/11 10:01:03;;;;;;;11.25;4.45;;;27.00;99.90;;;;;;5062131;28;20106;-88
2023/09/11 10:03:41;;;;;;;11.27;4.93;;;27.00;99.90;;;;;;5062167;28;20083;-87
2023/09/11 10:06:31;;;;;;;10.02;4.22;;;27.10;99.90;;;;;;5057818;28;20076;-88
2023/09/11 10:09:08;;;;;;;9.30;3.92;;;27.30;99.90;;;;;;5061285;28;20406;-88
2023/09/11 10:11:36;;;;;;;9.65;4.53;;;27.10;99.90;;;;;;5062084;28;20228;-87
2023/09/11 10:14:06;;;;;;;11.52;4.60;;;27.20;99.90;;;;;;5055236;28;20036;-88
2023/09/11 10:16:33;;;;;;;12.50;4.35;;;27.20;99.90;;;;;;5060510;28;20076;-88
2023/09/11 10:19:00;;;;;;;11.02;4.65;;;27.30;99.90;;;;;;5041244;28;20593;-88
2023/09/11 10:21:27;;;;;;;10.32;4.90;;;27.30;99.90;;;;;;5057385;28;20095;-88
2023/09/11 10:23:54;;;;;;;13.25;4.93;;;27.30;99.90;;;;;;5062205;28;20051;-89
2023/09/11 10:26:48;;;;;;;11.35;5.25;;;27.30;99.90;;;;;;5054185;28;20513;-89
2023/09/11 10:29:23;;;;;;;9.82;4.93;;;27.50;99.90;;;;;;5054109;28;20447;-88
2023/09/11 10:32:15;;;;;;;11.10;5.40;;;27.50;99.90;;;;;;5043226;28;20037;-88
2023/09/11 10:34:41;;;;;;;10.07;4.88;;;27.50;99.90;;;;;;5055507;28;20085;-88
2023/09/11 10:37:07;;;;;;;11.07;4.60;;;27.50;99.90;;;;;;5061983;28;20044;-89
2023/09/11 10:39:36;;;;;;;8.05;3.47;;;26.50;99.90;;;;;;5068686;28;20458;-88
2023/09/11 10:42:03;;;;;;;10.77;5.95;;;27.60;99.90;;;;;;5065631;28;20036;-88
2023/09/11 10:44:29;;;;;;;8.75;3.75;;;27.60;99.90;;;;;;5064278;28;20231;-89
2023/09/11 10:47:00;;;;;;;8.15;2.90;;;27.10;99.90;;;;;;5067420;28;20045;-88
2023/09/11 10:49:27;;;;;;;7.60;2.60;;;27.70;99.90;;;;;;5052796;28;20055;-89
2023/09/11 10:51:53;;;;;;;7.07;2.85;;;27.70;99.90;;;;;;5041188;28;20043;-89
2023/09/11 10:54:21;;;;;;;5.88;2.50;;;27.90;99.90;;;;;;5071898;28;20036;-88
2023/09/11 10:56:50;;;;;;;6.38;2.45;;;27.90;99.90;;;;;;5067818;28;20040;-87
2023/09/11 10:59:16;;;;;;;5.70;2.53;;;27.00;99.90;;;;;;5057362;28;20041;-87
2023/09/11 11:01:45;;;;;;;5.95;2.33;;;27.90;99.90;;;;;;5073523;28;20036;-87
2023/09/11 11:04:14;;;;;;;6.38;2.60;;;29.20;99.90;;;;;;5073498;28;20045;-87
2023/09/11 11:06:46;;;;;;;8.35;2.70;;;28.00;99.90;;;;;;5072556;28;20544;-87
2023/09/11 11:09:30;;;;;;;6.28;2.50;;;28.00;99.90;;;;;;5057777;28;20076;-86
2023/09/11 11:12:02;;;;;;;7.32;2.58;;;28.00;99.90;;;;;;5063710;28;20056;-86
2023/09/11 11:14:28;;;;;;;6.90;2.50;;;28.00;99.90;;;;;;5062071;28;20105;-86
2023/09/11 11:17:08;;;;;;;6.45;2.85;;;28.10;99.90;;;;;;5063599;28;20512;-87
2023/09/11 11:19:35;;;;;;;6.20;2.45;;;28.10;99.90;;;;;;5074020;28;20823;-87
2023/09/11 11:22:02;;;;;;;6.72;2.60;;;28.10;99.90;;;;;;5079315;28;20052;-88
2023/09/11 11:24:34;;;;;;;5.32;2.40;;;28.20;99.90;;;;;;5064358;28;20386;-88
2023/09/11 11:27:03;;;;;;;8.25;3.03;;;28.20;99.90;;;;;;5061720;28;20072;-88
2023/09/11 11:29:29;;;;;;;6.93;2.72;;;28.30;99.90;;;;;;5060641;28;20059;-88
2023/09/11 11:31:58;;;;;;;4.10;1.75;;;28.30;99.90;;;;;;5058539;28;20436;-88
2023/09/11 11:34:31;;;;;;;3.78;1.65;;;28.30;99.90;;;;;;5064799;28;20048;-87
2023/09/11 11:36:59;;;;;;;7.03;2.70;;;28.30;99.90;;;;;;5066815;28;20043;-88
2023/09/11 11:39:28;;;;;;;7.05;2.78;;;28.30;99.90;;;;;;5061643;28;20139;-87
2023/09/11 11:41:54;;;;;;;7.07;2.70;;;28.30;99.90;;;;;;5068369;28;20132;-87
2023/09/11 11:44:22;;;;;;;7.72;2.95;;;28.30;99.90;;;;;;5048245;28;20573;-88
2023/09/11 11:46:47;;;;;;;7.88;3.13;;;28.20;99.90;;;;;;5064930;28;20101;-88
2023/09/11 11:49:20;;;;;;;9.30;3.25;;;28.30;99.90;;;;;;5065850;28;20040;-87
2023/09/11 11:51:47;;;;;;;8.18;3.53;;;28.30;99.90;;;;;;5083945;28;20036;-87
2023/09/11 11:54:23;;;;;;;13.50;12.27;;;28.30;99.90;;;;;;5057854;28;20489;-87
2023/09/11 11:56:56;;;;;;;8.88;4.03;;;28.30;99.90;;;;;;5078027;28;20040;-87
2023/09/11 11:59:27;;;;;;;10.55;4.40;;;28.30;99.90;;;;;;5060419;28;20040;-88
2023/09/11 12:01:53;;;;;;;8.35;3.75;;;28.30;99.90;;;;;;5067464;28;20040;-87
2023/09/11 12:04:20;;;;;;;9.32;3.75;;;28.40;99.90;;;;;;5062273;28;20515;-86
2023/09/11 12:06:46;;;;;;;10.20;3.58;;;28.40;99.90;;;;;;5064137;28;20041;-88
2023/09/11 12:09:18;;;;;;;7.50;2.88;;;28.40;99.90;;;;;;5066825;28;20404;-87
2023/09/11 12:11:44;;;;;;;7.53;2.97;;;;;;;;;;5077815;28;20044;-87
2023/09/11 12:14:14;;;;;;;7.00;2.60;;;28.00;99.90;;;;;;5064143;28;20074;-88
2023/09/11 12:16:40;;;;;;;7.13;2.65;;;28.40;99.90;;;;;;5047720;28;20457;-88
2023/09/11 12:19:06;;;;;;;6.95;2.70;;;28.40;99.90;;;;;;5068091;28;20036;-87
2023/09/11 12:21:33;;;;;;;6.05;2.50;;;28.40;99.90;;;;;;5062493;28;20617;-88
2023/09/11 12:23:59;;;;;;;6.72;2.67;;;28.40;99.90;;;;;;5067788;28;20045;-88
2023/09/11 12:26:29;;;;;;;6.82;2.58;;;26.90;99.90;;;;;;5063246;28;20032;-88
2023/09/11 12:28:56;;;;;;;7.18;2.65;;;28.40;99.90;;;;;;5067106;28;20032;-88
2023/09/11 12:31:22;;;;;;;6.13;2.70;;;28.50;99.90;;;;;;5058227;28;20060;-88
2023/09/11 12:33:52;;;;;;;6.90;2.83;;;28.50;99.90;;;;;;5048008;28;20051;-88
2023/09/11 12:36:22;;;;;;;6.75;2.60;;;28.50;99.90;;;;;;5056178;28;20069;-89
2023/09/11 12:38:49;;;;;;;6.95;3.00;;;28.50;99.90;;;;;;5057260;28;20063;-88
2023/09/11 12:41:16;;;;;;;8.10;3.00;;;28.50;99.90;;;;;;5062372;28;20048;-87
2023/09/11 12:43:43;;;;;;;7.35;2.95;;;28.60;99.90;;;;;;5061215;28;20700;-88
2023/09/11 12:46:13;;;;;;;6.85;2.95;;;28.20;99.90;;;;;;5044433;28;20321;-87